Time;durP1;ratioP1;P1;durP2;ratioP2;P2;SDS_P1;SDS_P2;PMS_P1;PMS_P2;Temp;Humidity;BMP_temperature;BMP_pressure;BME280_temperature;BME280_humidity;BME280_pressure;Samples;Min_cycle;Max_cycle;Signal;HPM_P1;HPM_P2
2022/03/15 00:01:19;;;;;;;15.60;8.05;;;3.70;90.40;;;;;;5005956;28;20129;-54
2022/03/15 00:03:46;;;;;;;22.20;9.07;;;3.80;90.50;;;;;;4990757;28;20101;-52
2022/03/15 00:06:14;;;;;;;17.45;8.57;;;3.70;90.40;;;;;;4990816;28;20026;-53
2022/03/15 00:08:41;;;;;;;12.32;7.43;;;3.80;90.60;;;;;;4990015;28;20092;-57
2022/03/15 00:11:09;;;;;;;14.02;7.15;;;3.80;90.60;;;;;;4989992;28;20019;-53
2022/03/15 00:13:38;;;;;;;14.35;8.30;;;3.70;90.50;;;;;;4989637;28;20034;-54
2022/03/15 00:16:07;;;;;;;18.15;8.20;;;3.70;90.50;;;;;;4990232;28;20046;-53
2022/03/15 00:18:33;;;;;;;15.80;8.70;;;3.70;90.40;;;;;;5006220;28;20097;-56
2022/03/15 00:21:02;;;;;;;12.90;8.15;;;3.70;90.40;;;;;;4989632;28;20363;-55
2022/03/15 00:23:32;;;;;;;17.40;9.35;;;3.70;90.40;;;;;;5006549;28;20040;-56
2022/03/15 00:25:59;;;;;;;;;;;3.70;90.40;;;;;;4991164;28;20628;-55
2022/03/15 00:28:27;;;;;;;18.58;7.85;;;3.60;90.40;;;;;;4990506;28;19913;-54
2022/03/15 00:30:53;;;;;;;11.48;7.72;;;3.60;90.40;;;;;;4989878;28;20041;-55
2022/03/15 00:33:20;;;;;;;14.73;8.05;;;3.60;90.30;;;;;;4990493;28;20031;-55
2022/03/15 00:35:47;;;;;;;12.88;8.50;;;3.60;90.40;;;;;;4990043;28;20061;-55
2022/03/15 00:38:15;;;;;;;18.55;9.10;;;3.60;90.40;;;;;;4989850;28;20535;-54
2022/03/15 00:40:46;;;;;;;16.88;9.52;;;3.60;90.40;;;;;;4990549;28;20089;-51
2022/03/15 00:43:15;;;;;;;15.70;9.68;;;3.50;90.40;;;;;;4990535;28;20089;-57
2022/03/15 00:45:42;;;;;;;13.93;8.65;;;3.60;90.50;;;;;;4990384;28;20113;-56
2022/03/15 00:48:08;;;;;;;13.95;8.75;;;3.50;90.40;;;;;;4990491;28;20040;-54
2022/03/15 00:50:39;;;;;;;17.17;10.00;;;3.50;90.30;;;;;;4970168;28;20054;-56
2022/03/15 00:53:10;;;;;;;12.18;9.25;;;3.50;90.30;;;;;;4998935;28;20050;-54
2022/03/15 00:55:37;;;;;;;17.33;10.02;;;3.50;90.40;;;;;;4990172;28;20129;-55
2022/03/15 00:58:04;;;;;;;14.80;9.10;;;3.40;90.20;;;;;;5005912;28;20030;-58
2022/03/15 01:00:31;;;;;;;15.55;9.93;;;3.50;90.40;;;;;;4989213;28;20084;-56
2022/03/15 01:03:05;;;;;;;20.30;11.10;;;3.50;90.30;;;;;;5005451;28;20407;-56
2022/03/15 01:05:35;;;;;;;13.73;9.48;;;3.50;90.30;;;;;;5004562;28;20132;-56
2022/03/15 01:08:05;;;;;;;16.58;10.05;;;3.40;90.20;;;;;;4989239;28;20034;-58
2022/03/15 01:10:31;;;;;;;12.05;8.98;;;3.40;90.20;;;;;;4990173;28;20482;-58
2022/03/15 01:13:00;;;;;;;18.63;9.68;;;3.40;90.10;;;;;;4990263;28;20046;-54
2022/03/15 01:15:26;;;;;;;12.17;8.73;;;3.30;90.20;;;;;;4990252;28;20045;-58
2022/03/15 01:17:53;;;;;;;17.15;9.13;;;3.30;90.30;;;;;;4989958;28;20113;-55
2022/03/15 01:20:23;;;;;;;16.38;10.02;;;3.30;90.20;;;;;;4990226;28;20041;-58
2022/03/15 01:22:49;;;;;;;13.98;9.43;;;3.20;90.20;;;;;;4990607;28;20037;-57
2022/03/15 01:25:16;;;;;;;14.27;9.15;;;3.20;90.20;;;;;;4990227;28;20632;-58
2022/03/15 01:27:45;;;;;;;14.15;8.93;;;3.10;90.10;;;;;;4990224;28;20126;-57
2022/03/15 01:30:11;;;;;;;17.52;9.40;;;3.10;90.20;;;;;;4990067;28;20034;-54
2022/03/15 01:32:38;;;;;;;9.63;8.13;;;3.20;90.40;;;;;;4990243;28;20034;-54
2022/03/15 01:35:08;;;;;;;22.52;10.07;;;3.20;90.30;;;;;;4989850;28;20091;-57
2022/03/15 01:37:35;;;;;;;20.05;10.13;;;3.20;90.30;;;;;;4989112;28;20037;-53
2022/03/15 01:40:03;;;;;;;17.85;9.80;;;3.10;90.30;;;;;;5004819;28;20464;-53
2022/03/15 01:42:31;;;;;;;14.82;9.75;;;3.10;90.30;;;;;;4989021;28;20042;-52
2022/03/15 01:45:02;;;;;;;16.58;10.10;;;3.10;90.30;;;;;;4993180;28;20252;-55
2022/03/15 01:47:30;;;;;;;16.77;10.70;;;3.10;90.60;;;;;;4992698;28;20045;-57
2022/03/15 01:49:58;;;;;;;17.17;10.68;;;3.20;90.70;;;;;;4993462;28;20023;-55
2022/03/15 01:52:25;;;;;;;15.25;10.30;;;3.20;90.70;;;;;;4992547;28;20027;-56
2022/03/15 01:54:52;;;;;;;15.23;10.10;;;3.20;90.60;;;;;;4992615;28;20119;-56
2022/03/15 01:57:17;;;;;;;15.13;10.27;;;3.10;90.60;;;;;;4992249;28;20023;-55
2022/03/15 01:59:45;;;;;;;15.02;10.20;;;3.20;90.70;;;;;;4993253;28;20459;-55
2022/03/15 02:02:12;;;;;;;12.77;9.68;;;3.20;90.60;;;;;;4974122;28;20057;-52
2022/03/15 02:04:40;;;;;;;15.57;10.02;;;3.20;90.60;;;;;;4997146;28;20057;-53
2022/03/15 02:07:13;;;;;;;15.80;9.10;;;3.20;90.60;;;;;;4993389;28;20029;-52
2022/03/15 02:09:43;;;;;;;17.38;9.60;;;3.20;90.50;;;;;;5004775;28;20050;-53
2022/03/15 02:12:12;;;;;;;17.88;9.60;;;3.10;90.40;;;;;;5008474;28;20054;-52
2022/03/15 02:14:39;;;;;;;15.65;9.00;;;3.10;90.50;;;;;;4992992;28;20042;-56
2022/03/15 02:17:07;;;;;;;17.45;9.00;;;3.10;90.50;;;;;;4992593;28;20038;-55
2022/03/15 02:19:34;;;;;;;15.53;8.37;;;3.10;90.40;;;;;;4993743;28;20034;-55
2022/03/15 02:22:00;;;;;;;13.65;8.70;;;3.20;90.50;;;;;;5008061;28;20460;-55
2022/03/15 02:24:28;;;;;;;16.90;8.85;;;3.10;90.20;;;;;;4992739;28;20026;-57
2022/03/15 02:26:54;;;;;;;18.33;9.30;;;3.10;90.30;;;;;;5007356;28;20041;-56
2022/03/15 02:29:22;;;;;;;14.73;8.73;;;3.00;90.40;;;;;;4993122;28;20034;-57
2022/03/15 02:31:49;;;;;;;14.55;9.00;;;3.00;90.50;;;;;;4992695;28;20440;-56
2022/03/15 02:34:17;;;;;;;16.20;8.93;;;2.90;90.40;;;;;;4992799;28;20029;-58
2022/03/15 02:36:46;;;;;;;13.32;8.52;;;3.00;90.60;;;;;;5007683;28;20039;-56
2022/03/15 02:39:11;;;;;;;15.30;9.23;;;2.90;90.60;;;;;;4991565;28;20486;-55
2022/03/15 02:41:38;;;;;;;17.88;9.43;;;3.00;90.70;;;;;;4991265;28;20050;-57
2022/03/15 02:44:04;;;;;;;14.43;10.82;;;3.00;90.90;;;;;;4991177;28;20057;-58
2022/03/15 02:46:33;;;;;;;14.50;8.80;;;3.00;90.90;;;;;;4992348;28;20071;-57
2022/03/15 02:49:01;;;;;;;16.07;10.27;;;3.00;90.90;;;;;;4974484;28;20089;-57
2022/03/15 02:51:31;;;;;;;30.23;10.60;;;3.00;91.00;;;;;;4985536;28;20912;-58
2022/03/15 02:54:04;;;;;;;13.93;10.15;;;3.00;91.10;;;;;;4992270;28;20049;-58
2022/03/15 02:56:35;;;;;;;22.35;10.30;;;3.00;91.00;;;;;;4992437;28;20061;-58
2022/03/15 02:59:03;;;;;;;18.15;9.63;;;2.90;91.00;;;;;;4992716;28;20053;-58
2022/03/15 03:01:34;;;;;;;17.88;10.52;;;3.00;91.00;;;;;;4992093;28;20034;-57
2022/03/15 03:04:01;;;;;;;19.27;11.25;;;2.90;91.00;;;;;;4991899;28;20041;-57
2022/03/15 03:06:30;;;;;;;18.50;10.07;;;3.00;91.00;;;;;;4992194;28;20321;-58
2022/03/15 03:08:57;;;;;;;23.83;10.75;;;3.00;91.10;;;;;;4992134;28;20046;-56
2022/03/15 03:11:25;;;;;;;17.38;10.32;;;3.00;91.10;;;;;;4992104;28;20121;-56
2022/03/15 03:13:58;;;;;;;14.98;9.35;;;3.00;91.10;;;;;;4991202;28;20034;-58
2022/03/15 03:16:29;;;;;;;18.50;9.68;;;3.00;91.10;;;;;;4992346;28;20113;-58
2022/03/15 03:18:58;;;;;;;17.85;9.63;;;3.00;91.10;;;;;;4992171;28;20117;-58
2022/03/15 03:21:27;;;;;;;17.05;9.88;;;3.00;91.10;;;;;;4991712;28;20034;-58
2022/03/15 03:23:58;;;;;;;17.95;9.63;;;3.00;91.20;;;;;;4974882;28;20049;-58
2022/03/15 03:26:26;;;;;;;21.73;10.05;;;3.00;91.20;;;;;;4991687;28;20034;-57
2022/03/15 03:28:52;;;;;;;19.52;10.35;;;3.00;91.20;;;;;;4992030;28;20022;-59
2022/03/15 03:31:18;;;;;;;23.08;11.35;;;3.00;91.30;;;;;;4991791;28;20045;-59
2022/03/15 03:33:45;;;;;;;15.73;10.63;;;3.00;91.20;;;;;;4990957;28;20440;-60
2022/03/15 03:36:14;;;;;;;18.73;10.88;;;3.00;91.20;;;;;;4991364;28;20034;-61
2022/03/15 03:38:41;;;;;;;20.67;10.87;;;3.00;91.30;;;;;;4991858;28;20114;-61
2022/03/15 03:41:07;;;;;;;16.17;10.00;;;3.00;91.20;;;;;;4990627;28;20030;-61
2022/03/15 03:43:34;;;;;;;17.90;10.85;;;3.00;91.30;;;;;;4991420;28;20049;-61
2022/03/15 03:46:03;;;;;;;20.50;10.52;;;3.00;91.30;;;;;;4990410;28;20460;-61
2022/03/15 03:48:30;;;;;;;21.20;10.27;;;3.10;91.40;;;;;;4990505;28;20050;-61
2022/03/15 03:50:58;;;;;;;17.95;10.15;;;3.00;91.30;;;;;;4991245;28;20717;-62
2022/03/15 03:53:24;;;;;;;24.52;12.00;;;3.10;91.50;;;;;;4990275;28;20054;-62
2022/03/15 03:55:49;;;;;;;17.67;11.82;;;3.10;91.50;;;;;;4991113;28;20625;-62
2022/03/15 03:58:19;;;;;;;20.35;11.40;;;3.10;91.50;;;;;;4991373;28;20117;-62
2022/03/15 04:00:44;;;;;;;24.13;12.82;;;3.10;91.50;;;;;;4991229;28;20467;-62
2022/03/15 04:03:13;;;;;;;14.98;11.05;;;3.10;91.60;;;;;;4991373;28;20089;-62
2022/03/15 04:05:40;;;;;;;24.00;13.70;;;3.20;91.50;;;;;;5005442;28;20415;-62
2022/03/15 04:08:07;;;;;;;24.40;12.80;;;3.20;91.60;;;;;;4990662;28;20030;-62
2022/03/15 04:10:34;;;;;;;20.77;13.68;;;3.20;91.60;;;;;;5006064;28;20057;-62
2022/03/15 04:13:02;;;;;;;22.67;11.85;;;3.20;91.60;;;;;;5006452;28;20092;-62
2022/03/15 04:15:32;;;;;;;20.80;14.73;;;3.20;91.50;;;;;;5005565;28;20034;-62
2022/03/15 04:17:59;;;;;;;20.92;12.25;;;3.20;91.60;;;;;;4990188;28;20407;-63
2022/03/15 04:20:27;;;;;;;22.08;13.27;;;3.20;91.50;;;;;;4990898;28;20030;-63
2022/03/15 04:22:53;;;;;;;18.15;12.50;;;3.20;91.60;;;;;;4990823;28;20117;-63
2022/03/15 04:25:23;;;;;;;26.38;12.93;;;3.30;91.70;;;;;;4989762;28;20030;-63
2022/03/15 04:27:49;;;;;;;17.40;12.40;;;3.30;91.60;;;;;;4990783;28;20042;-63
2022/03/15 04:30:19;;;;;;;26.95;14.45;;;3.30;91.60;;;;;;4990476;28;20034;-62
2022/03/15 04:32:44;;;;;;;22.75;13.38;;;3.30;91.60;;;;;;4990656;28;20022;-62
2022/03/15 04:35:12;;;;;;;17.67;11.77;;;3.30;91.50;;;;;;5006067;28;20060;-62
2022/03/15 04:37:39;;;;;;;23.35;14.30;;;3.30;91.40;;;;;;4989921;28;20561;-62
2022/03/15 04:40:07;;;;;;;25.15;14.95;;;3.30;91.50;;;;;;4989045;28;20065;-62
2022/03/15 04:42:35;;;;;;;18.95;14.07;;;3.30;91.50;;;;;;4989992;28;20037;-62
2022/03/15 04:45:06;;;;;;;23.13;13.85;;;3.30;91.60;;;;;;4989916;28;20038;-62
2022/03/15 04:47:33;;;;;;;19.90;13.75;;;3.40;91.70;;;;;;4990004;28;20038;-62
2022/03/15 04:50:00;;;;;;;21.55;12.88;;;3.40;91.60;;;;;;4989104;28;20080;-62
2022/03/15 04:52:25;;;;;;;23.10;13.27;;;3.40;91.60;;;;;;4989876;28;20113;-62
2022/03/15 04:54:52;;;;;;;18.48;12.48;;;3.40;91.60;;;;;;4990109;28;20455;-62
2022/03/15 04:57:19;;;;;;;19.77;13.18;;;3.40;91.60;;;;;;4990567;28;20517;-62
2022/03/15 04:59:44;;;;;;;22.27;14.18;;;3.40;91.70;;;;;;4989875;28;20038;-62
2022/03/15 05:02:10;;;;;;;26.55;15.25;;;3.40;91.60;;;;;;4989541;28;20038;-62
2022/03/15 05:04:40;;;;;;;25.95;14.60;;;3.40;91.70;;;;;;4990074;28;20030;-62
2022/03/15 05:07:07;;;;;;;22.67;14.98;;;3.50;91.70;;;;;;4990194;28;20031;-62
2022/03/15 05:09:32;;;;;;;20.70;14.07;;;3.50;91.70;;;;;;4989379;28;20050;-62
2022/03/15 05:11:59;;;;;;;23.20;14.10;;;3.50;91.60;;;;;;4988672;28;20030;-62
2022/03/15 05:14:24;;;;;;;25.55;14.90;;;3.50;91.60;;;;;;4989518;28;20030;-62
2022/03/15 05:16:50;;;;;;;24.65;14.82;;;3.50;91.50;;;;;;5005494;28;20034;-62
2022/03/15 05:19:17;;;;;;;25.38;14.85;;;3.50;91.60;;;;;;4993563;28;20033;-61
2022/03/15 05:21:45;;;;;;;30.33;15.27;;;3.50;91.70;;;;;;4993273;28;20344;-62
2022/03/15 05:24:12;;;;;;;23.15;16.27;;;3.50;91.80;;;;;;4994137;28;20117;-62
2022/03/15 05:26:39;;;;;;;23.90;15.32;;;3.50;91.80;;;;;;4993093;28;20034;-61
2022/03/15 05:29:10;;;;;;;20.48;15.25;;;3.60;91.80;;;;;;4994137;28;20078;-61
2022/03/15 05:31:37;;;;;;;25.75;15.80;;;3.60;91.70;;;;;;4993840;28;20097;-61
2022/03/15 05:34:03;;;;;;;25.70;16.50;;;3.60;91.70;;;;;;4994125;28;20162;-61
2022/03/15 05:36:30;;;;;;;27.17;17.45;;;3.50;91.70;;;;;;4992377;28;20137;-61
2022/03/15 05:38:55;;;;;;;27.88;16.55;;;3.60;91.80;;;;;;4992602;28;20045;-61
2022/03/15 05:41:22;;;;;;;25.20;16.75;;;3.60;91.80;;;;;;4992561;28;20030;-61
2022/03/15 05:43:50;;;;;;;29.15;18.98;;;3.70;91.90;;;;;;4983081;28;20030;-61
2022/03/15 05:46:17;;;;;;;26.00;17.17;;;3.80;91.90;;;;;;4993568;28;20038;-61
2022/03/15 05:48:47;;;;;;;26.85;16.95;;;3.80;91.90;;;;;;4994254;28;20030;-61
2022/03/15 05:51:16;;;;;;;25.75;16.92;;;3.80;91.90;;;;;;4993117;28;20415;-61
2022/03/15 05:53:42;;;;;;;30.10;18.85;;;3.90;91.90;;;;;;4992612;28;20056;-61
2022/03/15 05:56:11;;;;;;;30.58;18.50;;;3.90;91.90;;;;;;4993267;28;20041;-61
2022/03/15 05:58:37;;;;;;;22.52;16.40;;;3.90;91.70;;;;;;4993800;28;20133;-60
2022/03/15 06:01:07;;;;;;;24.65;17.95;;;3.80;91.70;;;;;;5007918;28;20065;-61
2022/03/15 06:03:34;;;;;;;22.05;17.58;;;3.90;91.80;;;;;;4993129;28;20114;-61
2022/03/15 06:06:02;;;;;;;23.65;16.75;;;3.90;91.70;;;;;;5008902;28;20038;-61
2022/03/15 06:08:32;;;;;;;23.30;17.88;;;3.90;91.70;;;;;;4992074;28;20615;-60
2022/03/15 06:11:00;;;;;;;;;;;3.90;91.70;;;;;;4993401;28;20031;-60
2022/03/15 06:13:27;;;;;;;26.13;17.63;;;3.90;91.70;;;;;;4993267;28;19960;-61
2022/03/15 06:15:58;;;;;;;25.52;18.23;;;3.90;91.60;;;;;;4993340;28;20038;-60
2022/03/15 06:18:25;;;;;;;26.75;18.70;;;3.90;91.70;;;;;;4992837;28;20033;-61
2022/03/15 06:20:53;;;;;;;28.27;20.00;;;4.00;91.70;;;;;;4991983;28;20030;-60
2022/03/15 06:23:21;;;;;;;29.45;19.83;;;4.10;91.70;;;;;;4992830;28;20038;-61
2022/03/15 06:25:48;;;;;;;38.20;21.23;;;4.10;91.70;;;;;;4993189;28;20448;-60
2022/03/15 06:28:18;;;;;;;28.58;20.27;;;4.20;91.70;;;;;;4991829;28;20029;-60
2022/03/15 06:30:45;;;;;;;29.33;20.08;;;4.20;91.70;;;;;;4992234;28;20084;-60
2022/03/15 06:33:17;;;;;;;32.40;20.00;;;4.30;91.80;;;;;;4992549;28;20282;-58
2022/03/15 06:35:46;;;;;;;33.70;21.77;;;4.40;91.80;;;;;;4993016;28;20523;-59
2022/03/15 06:38:14;;;;;;;26.88;20.90;;;4.40;91.70;;;;;;4992449;28;20034;-59
2022/03/15 06:40:41;;;;;;;32.85;22.13;;;4.50;91.70;;;;;;4992674;28;20097;-59
2022/03/15 06:43:11;;;;;;;31.85;22.02;;;4.50;91.80;;;;;;4992164;28;20034;-59
2022/03/15 06:45:38;;;;;;;35.78;23.58;;;4.60;91.70;;;;;;4992874;28;20690;-59
2022/03/15 06:48:07;;;;;;;26.55;19.83;;;4.70;91.70;;;;;;4991866;28;20048;-58
2022/03/15 06:50:36;;;;;;;31.70;21.20;;;4.70;91.70;;;;;;4990782;28;20116;-58
2022/03/15 06:53:07;;;;;;;34.47;22.50;;;4.70;91.70;;;;;;5007004;28;20321;-59
2022/03/15 06:55:34;;;;;;;31.92;21.58;;;4.80;91.70;;;;;;4981519;28;20514;-57
2022/03/15 06:58:00;;;;;;;32.05;21.63;;;4.90;91.70;;;;;;4991670;28;20113;-57
2022/03/15 07:00:27;;;;;;;32.25;20.52;;;4.90;91.70;;;;;;4990912;28;20034;-56
2022/03/15 07:02:54;;;;;;;29.52;21.40;;;4.90;91.70;;;;;;4991060;28;20074;-59
2022/03/15 07:05:25;;;;;;;30.02;21.52;;;5.00;91.60;;;;;;4990181;28;20037;-58
2022/03/15 07:07:54;;;;;;;29.17;20.45;;;5.00;91.60;;;;;;4991677;28;20030;-57
2022/03/15 07:10:22;;;;;;;26.10;19.60;;;5.00;91.60;;;;;;4991282;28;20395;-57
2022/03/15 07:12:48;;;;;;;32.80;19.75;;;5.10;91.50;;;;;;4991014;28;20054;-52
2022/03/15 07:15:17;;;;;;;29.40;19.73;;;5.20;91.50;;;;;;4992375;28;20081;-54
2022/03/15 07:17:55;;;;;;;25.05;20.23;;;5.20;91.50;;;;;;4991918;28;20039;-52
2022/03/15 07:20:34;;;;;;;35.63;20.52;;;5.30;91.50;;;;;;4988358;28;20030;-53
2022/03/15 07:23:00;;;;;;;28.20;18.95;;;5.30;91.30;;;;;;4990783;28;20045;-55
2022/03/15 07:25:25;;;;;;;23.52;18.98;;;5.40;91.40;;;;;;4991759;28;20440;-52
2022/03/15 07:27:53;;;;;;;24.65;18.33;;;5.30;91.10;;;;;;5007715;28;20113;-54
2022/03/15 07:30:20;;;;;;;26.17;18.23;;;5.30;91.10;;;;;;4990728;28;20459;-53
2022/03/15 07:32:48;;;;;;;25.83;18.38;;;5.40;91.10;;;;;;5005875;28;20114;-53
2022/03/15 07:35:14;;;;;;;25.42;18.42;;;5.40;91.10;;;;;;4990631;28;20117;-53
2022/03/15 07:38:00;;;;;;;28.08;19.25;;;5.40;91.10;;;;;;4990891;28;20114;-52
2022/03/15 07:40:28;;;;;;;31.13;18.67;;;5.40;91.00;;;;;;4986580;28;20121;-49
2022/03/15 07:42:56;;;;;;;26.58;18.77;;;5.40;90.90;;;;;;5006712;28;20034;-52
2022/03/15 07:45:24;;;;;;;28.60;18.75;;;5.40;91.00;;;;;;4990813;28;20447;-50
2022/03/15 07:47:50;;;;;;;29.02;20.10;;;5.40;91.00;;;;;;4991514;28;20034;-51
2022/03/15 07:50:17;;;;;;;27.67;21.35;;;5.50;91.00;;;;;;4991102;28;20023;-50
2022/03/15 07:52:46;;;;;;;27.50;19.65;;;5.50;91.00;;;;;;4990336;28;20033;-51
2022/03/15 07:55:12;;;;;;;27.98;19.55;;;5.60;91.00;;;;;;4990562;28;20030;-50
2022/03/15 07:57:37;;;;;;;26.10;19.45;;;5.60;90.90;;;;;;4989914;28;20061;-53
2022/03/15 08:00:05;;;;;;;28.58;19.42;;;5.60;90.80;;;;;;4989556;28;20361;-49
2022/03/15 08:02:31;;;;;;;36.17;21.10;;;5.60;90.80;;;;;;4990854;28;20039;-49
2022/03/15 08:04:58;;;;;;;25.88;18.38;;;5.60;90.70;;;;;;4990315;28;20081;-49
2022/03/15 08:07:25;;;;;;;27.20;19.00;;;5.60;90.70;;;;;;4990044;28;20018;-51
2022/03/15 08:09:54;;;;;;;24.67;18.67;;;5.60;90.70;;;;;;4989872;28;20392;-48
2022/03/15 08:12:21;;;;;;;32.22;20.88;;;5.70;90.80;;;;;;4991260;28;20467;-51
2022/03/15 08:14:48;;;;;;;22.88;19.02;;;5.70;90.80;;;;;;4990742;28;20164;-49
2022/03/15 08:17:15;;;;;;;25.02;18.42;;;5.80;90.70;;;;;;4990717;28;20129;-49
2022/03/15 08:19:42;;;;;;;32.78;23.42;;;5.80;90.80;;;;;;4991180;28;20100;-48
2022/03/15 08:22:11;;;;;;;29.85;20.27;;;5.90;90.80;;;;;;4991398;28;20037;-51
2022/03/15 08:24:38;;;;;;;25.48;19.48;;;5.90;90.70;;;;;;4990887;28;20442;-49
2022/03/15 08:27:07;;;;;;;27.13;20.35;;;5.90;90.70;;;;;;4989639;28;20060;-50
2022/03/15 08:29:33;;;;;;;30.48;20.23;;;5.90;90.70;;;;;;4991034;28;20343;-49
2022/03/15 08:32:00;;;;;;;28.67;21.30;;;5.90;90.70;;;;;;4990567;28;20038;-48
2022/03/15 08:34:28;;;;;;;30.42;21.17;;;6.00;90.70;;;;;;4990860;28;20037;-51
2022/03/15 08:36:57;;;;;;;31.08;20.75;;;6.00;90.70;;;;;;4990717;28;20030;-48
2022/03/15 08:39:24;;;;;;;30.80;22.55;;;6.00;90.60;;;;;;4990168;28;20034;-48
2022/03/15 08:41:53;;;;;;;29.88;21.27;;;6.00;90.60;;;;;;4973731;28;20027;-50
2022/03/15 08:44:20;;;;;;;30.35;19.67;;;6.00;90.50;;;;;;4989179;28;20042;-48
2022/03/15 08:46:48;;;;;;;31.65;21.67;;;6.00;90.50;;;;;;4990292;28;20101;-49
2022/03/15 08:49:19;;;;;;;27.73;19.98;;;6.10;90.50;;;;;;5004901;28;20030;-60
2022/03/15 08:51:49;;;;;;;31.88;20.63;;;6.10;90.60;;;;;;5005053;28;20030;-60
2022/03/15 08:54:17;;;;;;;29.45;21.42;;;6.10;90.60;;;;;;4989357;28;20385;-60
2022/03/15 08:56:46;;;;;;;28.35;19.42;;;6.10;90.60;;;;;;4989449;28;20478;-60
2022/03/15 08:59:13;;;;;;;28.77;19.80;;;6.20;90.60;;;;;;4990335;28;20037;-59
2022/03/15 09:01:43;;;;;;;33.75;20.58;;;6.20;90.70;;;;;;4990070;28;20137;-58
2022/03/15 09:04:09;;;;;;;30.10;20.45;;;6.20;90.70;;;;;;5004803;28;20429;-56
2022/03/15 09:06:37;;;;;;;28.58;21.92;;;6.30;90.80;;;;;;4989931;28;20491;-56
2022/03/15 09:09:04;;;;;;;28.48;22.02;;;6.40;90.80;;;;;;4988027;28;20045;-59
2022/03/15 09:11:32;;;;;;;31.15;23.42;;;6.40;90.80;;;;;;4989107;28;20081;-59
2022/03/15 09:13:59;;;;;;;29.63;20.90;;;6.50;90.80;;;;;;4989463;28;20444;-57
2022/03/15 09:16:27;;;;;;;32.25;21.23;;;6.60;90.60;;;;;;4990091;28;20035;-54
2022/03/15 09:18:53;;;;;;;32.55;21.05;;;6.70;90.70;;;;;;4988686;28;20113;-54
2022/03/15 09:21:19;;;;;;;29.92;20.27;;;6.70;90.70;;;;;;4990310;28;20122;-55
2022/03/15 09:23:49;;;;;;;26.98;21.45;;;6.80;90.40;;;;;;4988938;28;20463;-55
2022/03/15 09:26:16;;;;;;;30.92;22.45;;;6.90;90.70;;;;;;5005267;28;20045;-52
2022/03/15 09:28:44;;;;;;;30.98;22.55;;;6.90;90.60;;;;;;4988757;28;20110;-52
2022/03/15 09:31:10;;;;;;;30.45;22.92;;;6.90;90.50;;;;;;4990128;28;20050;-51
2022/03/15 09:33:36;;;;;;;29.60;22.63;;;7.00;90.60;;;;;;4989663;28;20030;-49
2022/03/15 09:36:11;;;;;;;31.77;23.55;;;7.10;90.50;;;;;;4989811;28;20037;-49
2022/03/15 09:38:39;;;;;;;28.48;21.70;;;7.20;90.50;;;;;;4965045;28;20034;-49
2022/03/15 09:41:06;;;;;;;30.83;21.13;;;7.20;90.40;;;;;;4989818;28;20066;-49
2022/03/15 09:43:42;;;;;;;27.45;22.10;;;7.30;90.50;;;;;;4988739;28;20050;-51
2022/03/15 09:46:09;;;;;;;26.73;21.35;;;7.40;90.50;;;;;;4990043;28;20045;-50
2022/03/15 09:48:36;;;;;;;31.27;21.55;;;7.40;90.40;;;;;;4989829;28;20030;-48
2022/03/15 09:51:04;;;;;;;38.17;22.60;;;7.50;90.40;;;;;;4989117;28;20027;-48
2022/03/15 09:53:34;;;;;;;33.53;21.23;;;7.50;90.30;;;;;;4989567;28;20027;-48
2022/03/15 09:56:03;;;;;;;27.52;20.27;;;7.60;90.30;;;;;;4989867;28;20609;-47
2022/03/15 09:58:32;;;;;;;33.22;21.10;;;7.70;90.20;;;;;;4988716;28;20042;-47
2022/03/15 10:01:00;;;;;;;41.17;21.90;;;7.70;90.20;;;;;;4989511;28;20034;-47
2022/03/15 10:03:27;;;;;;;33.53;21.02;;;7.70;90.10;;;;;;4989878;28;20034;-47
2022/03/15 10:05:53;;;;;;;25.15;19.17;;;7.80;89.90;;;;;;5007497;28;20038;-48
2022/03/15 10:08:21;;;;;;;30.17;19.25;;;7.80;90.00;;;;;;4992932;28;20033;-48
2022/03/15 10:10:52;;;;;;;39.92;20.33;;;7.80;90.00;;;;;;5008351;28;20129;-49
2022/03/15 10:13:25;;;;;;;34.80;19.83;;;7.80;89.90;;;;;;4991664;28;20145;-48
2022/03/15 10:16:03;;;;;;;25.55;19.73;;;7.90;89.90;;;;;;5008056;28;20030;-47
2022/03/15 10:18:30;;;;;;;27.23;20.45;;;7.80;89.80;;;;;;4992853;28;20371;-47
2022/03/15 10:20:58;;;;;;;37.17;21.83;;;7.80;89.90;;;;;;5008364;28;20038;-49
2022/03/15 10:23:29;;;;;;;26.20;20.40;;;7.80;89.90;;;;;;4991937;28;20096;-46
2022/03/15 10:25:59;;;;;;;34.20;24.33;;;7.80;90.10;;;;;;4993264;28;20034;-48
2022/03/15 10:28:27;;;;;;;31.77;24.40;;;7.90;90.10;;;;;;4992880;28;20101;-47
2022/03/15 10:30:56;;;;;;;34.25;24.75;;;7.80;90.10;;;;;;4992118;28;20042;-48
2022/03/15 10:33:24;;;;;;;33.43;23.73;;;7.70;90.10;;;;;;4992743;28;20034;-46
2022/03/15 10:35:50;;;;;;;32.33;23.38;;;7.70;90.20;;;;;;4992769;28;20277;-47
2022/03/15 10:38:17;;;;;;;31.67;24.73;;;7.80;90.40;;;;;;5007733;28;20027;-47
2022/03/15 10:40:49;;;;;;;32.63;25.27;;;7.80;90.30;;;;;;4991572;28;20026;-45
2022/03/15 10:43:34;;;;;;;38.38;25.83;;;7.80;90.40;;;;;;4992516;28;20030;-46
2022/03/15 10:46:01;;;;;;;41.65;26.83;;;7.90;90.50;;;;;;4992830;28;20062;-45
2022/03/15 10:48:32;;;;;;;40.75;29.20;;;7.90;90.50;;;;;;4992657;28;20034;-45
2022/03/15 10:51:14;;;;;;;35.97;29.02;;;7.90;90.50;;;;;;4992591;28;20033;-46
2022/03/15 10:54:02;;;;;;;44.40;30.40;;;8.00;90.50;;;;;;4992451;28;20026;-45
2022/03/15 10:56:28;;;;;;;45.45;30.02;;;8.10;90.40;;;;;;4992519;28;20050;-45
2022/03/15 10:59:00;;;;;;;50.03;33.70;;;8.20;90.30;;;;;;5007116;28;20116;-44
2022/03/15 11:01:30;;;;;;;44.58;32.08;;;8.20;90.30;;;;;;4991600;28;20368;-44
2022/03/15 11:04:23;;;;;;;40.17;30.40;;;8.30;90.20;;;;;;4991047;28;20042;-44
2022/03/15 11:06:51;;;;;;;48.40;32.50;;;8.40;90.10;;;;;;4986047;28;20062;-45
2022/03/15 11:09:36;;;;;;;42.75;32.13;;;8.40;90.10;;;;;;4990763;28;20136;-43
2022/03/15 11:12:10;;;;;;;42.67;31.77;;;8.50;90.00;;;;;;4974985;28;20039;-44
2022/03/15 11:14:57;;;;;;;45.22;31.80;;;8.70;90.10;;;;;;4991388;28;20045;-42
2022/03/15 11:17:26;;;;;;;38.97;32.13;;;8.90;89.70;;;;;;4991639;28;20042;-44
2022/03/15 11:20:11;;;;;;;41.70;30.95;;;9.00;89.50;;;;;;5006287;28;20030;-43
2022/03/15 11:22:39;;;;;;;40.72;31.98;;;9.10;89.00;;;;;;4991556;28;20026;-42
2022/03/15 11:25:09;;;;;;;43.80;31.85;;;9.30;89.00;;;;;;4990154;28;20030;-44
2022/03/15 11:27:42;;;;;;;39.47;30.02;;;9.40;88.60;;;;;;4991605;28;20022;-42
2022/03/15 11:30:11;;;;;;;38.63;29.27;;;9.60;88.80;;;;;;4989770;28;20057;-42
2022/03/15 11:32:39;;;;;;;42.50;30.52;;;9.80;88.70;;;;;;4989840;28;20428;-42
2022/03/15 11:35:08;;;;;;;42.15;29.05;;;9.90;87.90;;;;;;4988456;28;20137;-41
2022/03/15 11:37:37;;;;;;;40.10;29.80;;;9.90;87.50;;;;;;4989884;28;20034;-42
2022/03/15 11:40:18;;;;;;;40.45;29.30;;;9.90;87.20;;;;;;5003942;28;20042;-41
2022/03/15 11:43:23;;;;;;;38.45;30.02;;;10.10;87.40;;;;;;4983707;28;20378;-41
2022/03/15 11:46:03;;;;;;;34.97;28.15;;;10.20;86.90;;;;;;4991439;28;20049;-41
2022/03/15 11:49:09;;;;;;;37.38;27.50;;;10.40;86.90;;;;;;4990472;28;20407;-41
2022/03/15 11:51:53;;;;;;;38.67;30.88;;;10.40;86.50;;;;;;4991835;28;20037;-42
2022/03/15 11:54:49;;;;;;;34.35;26.77;;;10.50;86.60;;;;;;4980338;28;20048;-43
2022/03/15 11:57:44;;;;;;;35.22;26.65;;;10.50;86.00;;;;;;4975988;28;20057;-40
2022/03/15 12:00:28;;;;;;;34.83;25.42;;;10.50;85.60;;;;;;4990644;28;20383;-40
2022/03/15 12:03:02;;;;;;;34.10;25.75;;;10.50;85.60;;;;;;4988107;28;20045;-40
2022/03/15 12:05:30;;;;;;;35.55;26.60;;;10.60;85.30;;;;;;4989805;28;20037;-40
2022/03/15 12:08:23;;;;;;;34.13;26.60;;;10.60;85.10;;;;;;4990873;28;20400;-40
2022/03/15 12:11:32;;;;;;;34.20;25.33;;;10.60;85.30;;;;;;5003792;28;20470;-40
2022/03/15 12:14:07;;;;;;;29.83;25.00;;;10.70;84.90;;;;;;4991410;28;20081;-42
2022/03/15 12:16:53;;;;;;;30.77;26.63;;;10.70;84.70;;;;;;4971784;28;20084;-40
2022/03/15 12:19:40;;;;;;;30.67;24.95;;;10.60;84.40;;;;;;4998140;28;20496;-41
2022/03/15 12:22:09;;;;;;;31.48;23.70;;;10.60;85.10;;;;;;5006553;28;20047;-40
2022/03/15 12:24:48;;;;;;;31.27;23.93;;;10.70;85.00;;;;;;4990805;28;20466;-41
2022/03/15 12:27:52;;;;;;;32.78;26.00;;;10.80;84.30;;;;;;4990373;28;20324;-41
2022/03/15 12:30:33;;;;;;;31.80;24.85;;;11.00;84.90;;;;;;4986871;28;20429;-41
2022/03/15 12:33:01;;;;;;;35.88;25.45;;;11.10;84.50;;;;;;4988483;28;20034;-42
2022/03/15 12:35:30;;;;;;;31.02;23.33;;;11.10;84.00;;;;;;4991036;28;20475;-41
2022/03/15 12:38:08;;;;;;;28.25;23.05;;;11.10;84.00;;;;;;4989270;28;20039;-41
2022/03/15 12:40:35;;;;;;;28.20;22.50;;;11.20;83.70;;;;;;4989198;28;20321;-41
2022/03/15 12:43:04;;;;;;;29.38;23.92;;;11.20;83.60;;;;;;4990378;28;20088;-41
2022/03/15 12:45:33;;;;;;;26.45;20.55;;;11.40;83.50;;;;;;4990517;28;20042;-41
2022/03/15 12:48:07;;;;;;;24.85;20.08;;;11.40;83.40;;;;;;4989674;28;20057;-41
2022/03/15 12:50:35;;;;;;;27.25;20.35;;;11.50;82.70;;;;;;4989958;28;20045;-41